createdAt,value
2017-08-17T00:00:07.117Z,21.77
2017-08-17T00:02:34.691Z,23.23
2017-08-17T00:05:02.270Z,22.58
2017-08-17T00:07:29.839Z,22.35
2017-08-17T00:09:57.421Z,23.08
2017-08-17T00:12:24.994Z,22.95
2017-08-17T00:14:52.562Z,23.08
2017-08-17T00:17:20.143Z,22.70
2017-08-17T00:19:47.704Z,20.80
2017-08-17T00:22:15.433Z,19.87
2017-08-17T00:24:43.016Z,18.15
2017-08-17T00:27:10.598Z,20.37
2017-08-17T00:29:38.204Z,19.80
2017-08-17T00:32:05.774Z,18.95
2017-08-17T00:34:33.332Z,18.08
2017-08-17T00:37:00.944Z,17.98
2017-08-17T00:39:28.513Z,17.33
2017-08-17T00:41:56.069Z,18.52
2017-08-17T00:44:23.687Z,18.83
2017-08-17T00:46:51.252Z,17.37
2017-08-17T00:49:18.804Z,17.00
2017-08-17T00:51:46.392Z,16.20
2017-08-17T00:54:13.948Z,15.50
2017-08-17T00:56:41.496Z,16.87
2017-08-17T00:59:09.095Z,17.25
2017-08-17T01:01:36.683Z,17.12
2017-08-17T01:04:04.267Z,15.85
2017-08-17T01:06:31.870Z,18.70
2017-08-17T01:08:59.444Z,17.92
2017-08-17T01:11:27.035Z,20.15
2017-08-17T01:13:54.666Z,19.15
2017-08-17T01:16:22.257Z,18.00
2017-08-17T01:18:49.785Z,18.00
2017-08-17T01:21:17.556Z,18.23
2017-08-17T01:23:45.171Z,17.15
2017-08-17T01:26:12.730Z,17.23
2017-08-17T01:28:40.286Z,17.75
2017-08-17T01:31:07.857Z,17.85
2017-08-17T01:33:35.907Z,17.92
2017-08-17T01:36:03.675Z,18.12
2017-08-17T01:38:32.133Z,19.40
2017-08-17T01:40:59.697Z,19.37
2017-08-17T01:43:27.297Z,16.48
2017-08-17T01:45:54.836Z,16.40
2017-08-17T01:48:22.397Z,17.87
2017-08-17T01:50:50.688Z,18.30
2017-08-17T01:53:18.279Z,17.80
2017-08-17T01:55:45.851Z,17.48
2017-08-17T01:58:13.624Z,17.60
2017-08-17T02:00:41.210Z,18.55
2017-08-17T02:03:08.794Z,19.67
2017-08-17T02:05:36.422Z,18.90
2017-08-17T02:08:03.949Z,18.45
2017-08-17T02:10:31.525Z,17.95
2017-08-17T02:12:59.141Z,17.02
2017-08-17T02:15:26.694Z,20.30
2017-08-17T02:17:54.254Z,19.30
2017-08-17T02:20:21.845Z,17.75
2017-08-17T02:22:49.398Z,19.90
2017-08-17T02:25:16.947Z,19.40
2017-08-17T02:27:44.656Z,18.77
2017-08-17T02:30:12.204Z,19.60
2017-08-17T02:32:39.715Z,18.45
2017-08-17T02:35:07.484Z,20.90
2017-08-17T02:37:35.025Z,20.05
2017-08-17T02:40:02.574Z,21.73
2017-08-17T02:42:30.248Z,22.92
2017-08-17T02:44:57.821Z,22.55
2017-08-17T02:47:25.384Z,25.20
2017-08-17T02:49:52.963Z,30.40
2017-08-17T02:52:20.512Z,29.90
2017-08-17T02:54:48.089Z,23.25
2017-08-17T02:57:15.824Z,20.40
2017-08-17T02:59:43.347Z,20.33
2017-08-17T03:02:10.855Z,21.58
2017-08-17T03:04:38.502Z,18.90
2017-08-17T03:07:06.066Z,18.80
2017-08-17T03:09:33.562Z,18.58
2017-08-17T03:12:01.146Z,17.58
2017-08-17T03:14:28.704Z,18.23
2017-08-17T03:16:56.223Z,18.67
2017-08-17T03:19:23.775Z,18.35
2017-08-17T03:21:51.318Z,17.77
2017-08-17T03:24:18.874Z,18.85
2017-08-17T03:26:46.445Z,18.12
2017-08-17T03:29:14.023Z,22.27
2017-08-17T03:31:41.553Z,20.48
2017-08-17T03:34:09.289Z,20.37
2017-08-17T03:36:36.839Z,20.92
2017-08-17T03:39:04.420Z,20.00
2017-08-17T03:41:32.029Z,19.65
2017-08-17T03:43:59.523Z,24.75
2017-08-17T03:46:27.084Z,25.75
2017-08-17T03:48:54.679Z,22.23
2017-08-17T03:51:22.190Z,20.80
2017-08-17T03:53:49.716Z,22.87
2017-08-17T03:56:17.296Z,22.65
2017-08-17T03:58:44.866Z,22.02
2017-08-17T04:01:12.422Z,24.48
2017-08-17T04:03:40.150Z,23.10
2017-08-17T04:06:07.714Z,24.85
2017-08-17T04:08:35.256Z,24.58
2017-08-17T04:11:03.029Z,22.10
2017-08-17T04:13:30.560Z,19.58
2017-08-17T04:15:58.143Z,18.95
2017-08-17T04:18:26.445Z,16.60
2017-08-17T04:20:54.006Z,14.70
2017-08-17T04:23:21.529Z,11.98
2017-08-17T04:25:49.158Z,10.43
2017-08-17T04:28:16.699Z,12.32
2017-08-17T04:30:44.327Z,15.82
2017-08-17T04:33:11.853Z,18.67
2017-08-17T04:35:39.378Z,19.08
2017-08-17T04:38:06.957Z,16.83
2017-08-17T04:40:34.554Z,15.05
2017-08-17T04:43:02.102Z,17.27
2017-08-17T04:45:29.656Z,13.95
2017-08-17T04:47:57.201Z,14.13
2017-08-17T04:50:24.782Z,11.90
2017-08-17T04:52:52.365Z,10.20
2017-08-17T04:55:19.910Z,8.73
2017-08-17T04:58:04.867Z,7.55
2017-08-17T05:00:32.476Z,7.72
2017-08-17T05:03:00.014Z,8.27
2017-08-17T05:05:27.569Z,7.15
2017-08-17T05:07:55.141Z,7.40
2017-08-17T05:10:22.683Z,7.70
2017-08-17T05:12:50.239Z,5.73
2017-08-17T05:15:17.810Z,5.47
2017-08-17T05:17:45.394Z,5.97
2017-08-17T05:20:12.987Z,5.77
2017-08-17T05:22:40.563Z,4.13
2017-08-17T05:25:08.097Z,4.33
2017-08-17T05:27:35.630Z,5.13
2017-08-17T05:30:03.225Z,4.30
2017-08-17T05:32:30.729Z,3.87
2017-08-17T05:34:58.231Z,4.07
2017-08-17T05:37:25.762Z,5.10
2017-08-17T05:39:53.310Z,3.80
2017-08-17T05:42:20.864Z,4.63
2017-08-17T05:44:48.437Z,4.50
2017-08-17T05:47:16.001Z,4.00
2017-08-17T05:49:43.668Z,4.00
2017-08-17T05:52:11.263Z,4.63
2017-08-17T05:54:38.819Z,5.70
2017-08-17T05:57:06.393Z,6.00
2017-08-17T05:59:33.947Z,5.80
2017-08-17T06:02:01.470Z,6.77
2017-08-17T06:04:29.023Z,7.17
2017-08-17T06:06:56.731Z,7.37
2017-08-17T06:09:24.350Z,6.77
2017-08-17T06:11:51.865Z,8.40
2017-08-17T06:14:20.092Z,7.87
2017-08-17T06:16:48.063Z,7.70
2017-08-17T06:19:15.602Z,8.07
2017-08-17T06:21:43.192Z,8.10
2017-08-17T06:24:10.765Z,8.03
2017-08-17T06:26:38.294Z,7.03
2017-08-17T06:29:05.852Z,8.90
2017-08-17T06:31:33.394Z,8.40
2017-08-17T06:34:00.956Z,8.53
2017-08-17T06:36:28.546Z,8.73
2017-08-17T06:38:56.098Z,7.10
2017-08-17T06:41:23.623Z,7.27
2017-08-17T06:43:51.167Z,8.40
2017-08-17T06:46:18.852Z,8.20
2017-08-17T06:48:46.401Z,7.63
2017-08-17T06:51:13.968Z,7.47
2017-08-17T06:53:41.484Z,8.63
2017-08-17T06:56:09.055Z,8.30
2017-08-17T06:58:36.622Z,7.87
2017-08-17T07:01:04.178Z,7.60
2017-08-17T07:03:31.679Z,8.90
2017-08-17T07:05:59.318Z,8.47
2017-08-17T07:08:26.862Z,9.13
2017-08-17T07:10:54.354Z,8.70
2017-08-17T07:13:21.957Z,7.73
2017-08-17T07:15:49.485Z,7.10
2017-08-17T07:18:17.084Z,7.20
2017-08-17T07:20:44.653Z,7.00
2017-08-17T07:23:12.774Z,6.53
2017-08-17T07:25:40.327Z,7.80
2017-08-17T07:28:08.049Z,6.50
2017-08-17T07:30:35.596Z,7.27
2017-08-17T07:33:03.127Z,6.73
2017-08-17T07:35:30.644Z,6.63
2017-08-17T07:37:58.185Z,7.63
2017-08-17T07:40:25.761Z,7.03
2017-08-17T07:42:53.350Z,7.03
2017-08-17T07:45:20.904Z,6.87
2017-08-17T07:47:48.462Z,6.30
2017-08-17T07:50:16.061Z,5.93
2017-08-17T07:52:43.587Z,5.50
2017-08-17T07:55:11.119Z,6.70
2017-08-17T07:57:38.687Z,6.20
2017-08-17T08:00:06.233Z,5.90
2017-08-17T08:02:33.782Z,6.60
2017-08-17T08:05:01.336Z,7.57
2017-08-17T08:07:28.892Z,8.23
2017-08-17T08:09:56.447Z,7.10
2017-08-17T08:12:23.989Z,6.87
2017-08-17T08:14:51.518Z,6.77
2017-08-17T08:17:19.043Z,6.40
2017-08-17T08:19:46.591Z,5.87
2017-08-17T08:22:14.137Z,5.80
2017-08-17T08:24:41.688Z,5.87
2017-08-17T08:27:09.247Z,6.13
2017-08-17T08:29:36.770Z,6.37
2017-08-17T08:32:04.342Z,5.60
2017-08-17T08:34:31.977Z,6.10
2017-08-17T08:36:59.524Z,5.47
2017-08-17T08:39:27.058Z,6.10
2017-08-17T08:41:54.621Z,5.37
2017-08-17T08:44:22.140Z,5.40
2017-08-17T08:46:49.715Z,4.70
2017-08-17T08:49:17.946Z,5.67
2017-08-17T08:51:45.466Z,4.33
2017-08-17T08:54:13.040Z,4.77
2017-08-17T08:56:40.613Z,4.00
2017-08-17T08:59:08.208Z,4.67
2017-08-17T09:01:35.750Z,4.47
2017-08-17T09:04:03.479Z,4.50
2017-08-17T09:06:31.056Z,4.40
2017-08-17T09:08:58.559Z,4.10
2017-08-17T09:11:26.095Z,4.97
2017-08-17T09:13:53.754Z,4.53
2017-08-17T09:16:21.282Z,4.50
2017-08-17T09:18:48.999Z,4.47
2017-08-17T09:21:16.533Z,4.80
2017-08-17T09:23:44.072Z,4.20
2017-08-17T09:26:11.645Z,4.90
2017-08-17T09:28:39.189Z,5.53
2017-08-17T09:31:06.697Z,4.37
2017-08-17T09:33:34.440Z,4.90
2017-08-17T09:36:01.987Z,4.37
2017-08-17T09:38:29.528Z,4.80
2017-08-17T09:40:57.120Z,4.70
2017-08-17T09:43:24.636Z,5.10
2017-08-17T09:45:52.223Z,4.63
2017-08-17T09:48:19.812Z,4.80
2017-08-17T09:50:47.334Z,4.40
2017-08-17T09:53:14.888Z,5.37
2017-08-17T09:55:48.638Z,4.93
2017-08-17T09:58:16.227Z,5.07
2017-08-17T10:00:43.834Z,5.13
2017-08-17T10:03:11.687Z,4.40
2017-08-17T10:05:39.240Z,4.90
2017-08-17T10:08:06.792Z,4.90
2017-08-17T10:10:34.396Z,5.13
2017-08-17T10:13:01.905Z,5.67
2017-08-17T10:15:29.453Z,5.63
2017-08-17T10:17:57.330Z,5.30
2017-08-17T10:20:25.771Z,5.17
2017-08-17T10:22:53.276Z,5.97
2017-08-17T10:25:20.871Z,5.60
2017-08-17T10:27:48.419Z,5.63
2017-08-17T10:30:15.919Z,5.90
2017-08-17T10:32:43.652Z,5.03
2017-08-17T10:35:11.140Z,5.50
2017-08-17T10:37:38.727Z,5.70
2017-08-17T10:40:06.305Z,5.33
2017-08-17T10:42:33.909Z,6.13
2017-08-17T10:45:01.508Z,5.80
2017-08-17T10:47:29.101Z,5.67
2017-08-17T10:49:56.670Z,5.20
2017-08-17T10:52:24.231Z,5.47
2017-08-17T10:54:51.971Z,5.00
2017-08-17T10:57:19.513Z,5.37
2017-08-17T10:59:47.038Z,6.30
2017-08-17T11:02:14.794Z,6.43
2017-08-17T11:04:42.250Z,6.50
2017-08-17T11:07:09.814Z,6.90
2017-08-17T11:09:37.570Z,7.20
2017-08-17T11:12:05.100Z,6.13
2017-08-17T11:14:32.673Z,6.00
2017-08-17T11:17:00.223Z,5.93
2017-08-17T11:19:27.782Z,4.90
2017-08-17T11:21:55.281Z,5.43
2017-08-17T11:24:22.834Z,5.43
2017-08-17T11:26:50.386Z,4.50
2017-08-17T11:29:17.947Z,4.20
2017-08-17T11:31:45.723Z,4.10
2017-08-17T11:34:13.293Z,4.50
2017-08-17T11:36:40.801Z,4.70
2017-08-17T11:39:08.421Z,5.43
2017-08-17T11:41:36.003Z,5.17
2017-08-17T11:44:03.577Z,5.97
2017-08-17T11:46:31.108Z,5.30
2017-08-17T11:48:58.622Z,6.03
2017-08-17T11:51:25.674Z,5.90
2017-08-17T11:53:53.249Z,6.30
2017-08-17T11:56:20.845Z,7.17
2017-08-17T11:58:48.395Z,7.10
2017-08-17T12:01:15.944Z,6.80
2017-08-17T12:03:43.469Z,7.97
2017-08-17T12:06:11.094Z,7.90
2017-08-17T12:08:38.716Z,7.80
2017-08-17T12:11:06.322Z,7.70
2017-08-17T12:13:33.882Z,7.40
2017-08-17T12:16:01.495Z,6.30
2017-08-17T12:18:29.040Z,5.43
2017-08-17T12:20:56.617Z,5.40
2017-08-17T12:23:24.307Z,4.97
2017-08-17T12:25:51.880Z,5.60
2017-08-17T12:28:19.429Z,6.53
2017-08-17T12:30:47.090Z,6.93
2017-08-17T12:33:15.376Z,5.97
2017-08-17T12:35:42.928Z,7.00
2017-08-17T12:38:10.503Z,6.97
2017-08-17T12:40:38.075Z,6.30
2017-08-17T12:43:05.641Z,6.40
2017-08-17T12:45:33.256Z,7.20
2017-08-17T12:48:00.821Z,7.17
2017-08-17T12:50:28.408Z,7.17
2017-08-17T12:52:56.005Z,6.10
2017-08-17T12:55:23.591Z,6.03
2017-08-17T12:57:51.151Z,6.20
2017-08-17T13:00:18.760Z,5.87
2017-08-17T13:02:46.334Z,6.57
2017-08-17T13:05:13.867Z,6.97
2017-08-17T13:07:41.619Z,6.40
2017-08-17T13:10:09.179Z,6.37
2017-08-17T13:12:36.686Z,5.77
2017-08-17T13:15:04.273Z,5.93
2017-08-17T13:17:31.787Z,5.73
2017-08-17T13:19:59.376Z,5.60
2017-08-17T13:22:26.923Z,6.60
2017-08-17T13:24:54.509Z,5.60
2017-08-17T13:27:22.107Z,5.70
2017-08-17T13:29:50.807Z,6.40
2017-08-17T13:32:18.376Z,6.00
2017-08-17T13:34:45.932Z,6.00
2017-08-17T13:37:13.558Z,5.63
2017-08-17T13:39:41.131Z,5.20
2017-08-17T13:42:08.714Z,5.23
2017-08-17T13:44:36.382Z,5.00
2017-08-17T13:47:03.968Z,4.63
2017-08-17T13:49:31.730Z,4.70
2017-08-17T13:51:59.442Z,5.47
2017-08-17T13:54:27.042Z,5.07
2017-08-17T13:56:54.682Z,4.80
2017-08-17T13:59:22.355Z,5.17
2017-08-17T14:01:50.006Z,4.80
2017-08-17T14:04:17.650Z,5.20
2017-08-17T14:06:45.522Z,5.57
2017-08-17T14:09:13.237Z,5.50
2017-08-17T14:11:40.822Z,4.93
2017-08-17T14:14:08.494Z,6.30
2017-08-17T14:16:36.070Z,5.17
2017-08-17T14:19:03.643Z,5.40
2017-08-17T14:21:31.240Z,5.30
2017-08-17T14:23:58.842Z,4.93
2017-08-17T14:26:26.473Z,5.00
2017-08-17T14:28:54.067Z,4.77
2017-08-17T14:31:21.716Z,5.10
2017-08-17T14:33:49.339Z,5.70
2017-08-17T14:36:17.230Z,5.47
2017-08-17T14:38:45.742Z,4.70
2017-08-17T14:41:13.368Z,6.00
2017-08-17T14:43:41.078Z,5.67
2017-08-17T14:46:08.802Z,5.13
2017-08-17T14:48:36.966Z,6.10
2017-08-17T14:51:04.646Z,5.40
2017-08-17T14:53:33.683Z,5.10
2017-08-17T14:56:01.248Z,5.50
2017-08-17T14:58:28.884Z,5.60
2017-08-17T15:00:56.488Z,6.00
2017-08-17T15:03:24.090Z,5.30
2017-08-17T15:05:51.696Z,4.50
2017-08-17T15:08:19.550Z,4.57
2017-08-17T15:10:47.099Z,4.97
2017-08-17T15:13:14.722Z,4.43
2017-08-17T15:15:42.429Z,4.50
2017-08-17T15:18:09.982Z,4.20
2017-08-17T15:20:37.633Z,4.37
2017-08-17T15:23:05.247Z,4.37
2017-08-17T15:25:32.845Z,3.70
2017-08-17T15:28:00.513Z,4.13
2017-08-17T15:30:28.439Z,4.20
2017-08-17T15:32:56.021Z,5.27
2017-08-17T15:35:23.814Z,4.10
2017-08-17T15:37:51.445Z,4.47
2017-08-17T15:40:19.006Z,4.13
2017-08-17T15:42:46.705Z,4.57
2017-08-17T15:45:14.278Z,4.27
2017-08-17T15:47:41.840Z,4.37
2017-08-17T15:50:09.491Z,4.43
2017-08-17T15:52:37.116Z,4.50
2017-08-17T15:55:04.825Z,5.10
2017-08-17T15:57:32.432Z,4.73
2017-08-17T16:00:00.030Z,3.83
2017-08-17T16:02:27.601Z,4.03
2017-08-17T16:04:55.221Z,4.93
2017-08-17T16:07:22.751Z,4.47
2017-08-17T16:09:50.333Z,4.57
2017-08-17T16:12:17.890Z,4.60
2017-08-17T16:14:45.496Z,4.93
2017-08-17T16:17:13.075Z,4.43
2017-08-17T16:19:40.681Z,5.67
2017-08-17T16:22:08.250Z,6.10
2017-08-17T16:24:35.803Z,5.30
2017-08-17T16:27:03.577Z,4.60
2017-08-17T16:29:31.142Z,4.50
2017-08-17T16:31:58.711Z,4.70
2017-08-17T16:34:26.330Z,4.80
2017-08-17T16:36:53.940Z,5.30
2017-08-17T16:39:21.692Z,5.60
2017-08-17T16:41:49.302Z,5.30
2017-08-17T16:44:16.844Z,5.03
2017-08-17T16:46:44.466Z,6.20
2017-08-17T16:49:12.376Z,5.13
2017-08-17T16:51:39.963Z,5.67
2017-08-17T16:54:07.563Z,5.20
2017-08-17T16:56:35.121Z,5.40
2017-08-17T16:59:02.671Z,4.90
2017-08-17T17:01:30.267Z,5.20
2017-08-17T17:03:57.910Z,5.15
2017-08-17T17:06:25.424Z,5.10
2017-08-17T17:08:52.992Z,5.20
2017-08-17T17:11:20.906Z,6.15
2017-08-17T17:13:48.457Z,5.47
2017-08-17T17:16:16.027Z,5.70
2017-08-17T17:18:43.656Z,6.00
2017-08-17T17:21:11.258Z,6.00
2017-08-17T17:23:38.825Z,7.05
2017-08-17T17:26:06.598Z,5.25
2017-08-17T17:28:34.211Z,6.45
2017-08-17T17:31:01.922Z,5.70
2017-08-17T17:33:29.570Z,6.15
2017-08-17T17:35:57.201Z,7.62
2017-08-17T17:38:24.803Z,6.32
2017-08-17T17:40:52.589Z,7.75
2017-08-17T17:43:20.289Z,12.18
2017-08-17T17:45:47.957Z,7.50
2017-08-17T17:48:15.551Z,13.30
2017-08-17T17:50:43.163Z,10.40
2017-08-17T17:53:10.750Z,12.35
2017-08-17T17:55:38.439Z,7.45
2017-08-17T17:58:06.019Z,7.85
2017-08-17T18:00:33.626Z,7.10
2017-08-17T18:03:01.305Z,7.20
2017-08-17T18:05:28.915Z,23.95
2017-08-17T18:07:56.503Z,12.27
2017-08-17T18:10:24.284Z,20.95
2017-08-17T18:12:53.849Z,7.93
2017-08-17T18:15:21.397Z,7.10
2017-08-17T18:17:49.022Z,7.93
2017-08-17T18:20:16.633Z,8.20
2017-08-17T18:22:45.225Z,8.65
2017-08-17T18:25:12.869Z,8.73
2017-08-17T18:27:40.521Z,7.82
2017-08-17T18:30:08.313Z,8.27
2017-08-17T18:32:36.150Z,8.00
2017-08-17T18:35:03.720Z,8.88
2017-08-17T18:37:31.281Z,7.95
2017-08-17T18:39:59.565Z,8.70
2017-08-17T18:42:27.130Z,68.35
2017-08-17T18:44:54.858Z,8.73
2017-08-17T18:47:22.673Z,10.20
2017-08-17T18:49:50.229Z,9.20
2017-08-17T18:52:17.886Z,10.18
2017-08-17T18:54:45.660Z,13.93
2017-08-17T18:57:13.342Z,9.45
2017-08-17T18:59:41.075Z,10.43
2017-08-17T19:02:08.882Z,12.55
2017-08-17T19:04:36.491Z,9.18
2017-08-17T19:07:04.032Z,10.30
2017-08-17T19:09:31.698Z,9.52
2017-08-17T19:12:00.331Z,10.00
2017-08-17T19:14:28.867Z,9.90
2017-08-17T19:16:56.799Z,9.73
2017-08-17T19:19:24.427Z,9.32
2017-08-17T19:21:52.867Z,9.15
2017-08-17T19:24:20.513Z,9.80
2017-08-17T19:26:50.677Z,9.43
2017-08-17T19:29:18.270Z,9.60
2017-08-17T19:32:28.212Z,10.52
2017-08-17T19:34:55.831Z,10.02
2017-08-17T19:37:24.861Z,10.07
2017-08-17T19:39:52.591Z,9.88
2017-08-17T19:42:21.016Z,11.15
2017-08-17T19:44:48.885Z,10.90
2017-08-17T19:47:16.532Z,10.70
2017-08-17T19:49:44.867Z,11.20
2017-08-17T19:52:12.445Z,11.15
2017-08-17T19:54:40.159Z,11.65
2017-08-17T19:57:07.833Z,11.75
2017-08-17T19:59:36.748Z,12.05
2017-08-17T20:02:04.322Z,14.68
2017-08-17T20:04:32.637Z,12.95
2017-08-17T20:07:00.300Z,13.60
2017-08-17T20:09:27.966Z,12.52
2017-08-17T20:11:55.656Z,12.77
2017-08-17T20:14:24.279Z,12.60
2017-08-17T20:16:52.043Z,12.93
2017-08-17T20:19:19.584Z,12.98
2017-08-17T20:21:47.136Z,11.80
2017-08-17T20:24:14.754Z,13.43
2017-08-17T20:26:42.318Z,13.48
2017-08-17T20:29:09.883Z,13.75
2017-08-17T20:31:37.520Z,13.00
2017-08-17T20:34:05.889Z,13.90
2017-08-17T20:36:33.464Z,16.05
2017-08-17T20:39:01.047Z,14.00
2017-08-17T20:41:28.662Z,13.70
2017-08-17T20:43:57.391Z,14.15
2017-08-17T20:46:25.056Z,13.62
2017-08-17T20:48:52.654Z,13.60
2017-08-17T20:51:20.275Z,13.88
2017-08-17T20:53:47.898Z,13.52
2017-08-17T20:56:15.480Z,14.90
2017-08-17T20:58:43.173Z,13.25
2017-08-17T21:01:10.998Z,15.32
2017-08-17T21:03:38.625Z,14.15
2017-08-17T21:06:06.281Z,13.60
2017-08-17T21:08:33.895Z,13.25
2017-08-17T21:11:01.504Z,12.57
2017-08-17T21:13:29.698Z,13.82
2017-08-17T21:15:58.028Z,13.85
2017-08-17T21:18:26.361Z,13.65
2017-08-17T21:20:54.137Z,12.27
2017-08-17T21:23:21.930Z,14.05
2017-08-17T21:25:49.495Z,14.52
2017-08-17T21:28:17.064Z,13.70
2017-08-17T21:30:44.656Z,13.68
2017-08-17T21:33:12.265Z,13.43
2017-08-17T21:35:39.851Z,13.68
2017-08-17T21:38:07.499Z,13.27
2017-08-17T21:40:35.122Z,13.43
2017-08-17T21:43:02.702Z,14.05
2017-08-17T21:45:30.496Z,13.10
2017-08-17T21:47:58.067Z,13.02
2017-08-17T21:50:25.652Z,13.43
2017-08-17T21:52:53.316Z,13.10
2017-08-17T21:55:20.915Z,12.90
2017-08-17T21:57:48.511Z,11.63
2017-08-17T22:00:16.211Z,12.68
2017-08-17T22:02:44.102Z,12.02
2017-08-17T22:05:11.670Z,11.57
2017-08-17T22:07:39.319Z,12.63
2017-08-17T22:10:06.859Z,11.75
2017-08-17T22:12:34.439Z,11.45
2017-08-17T22:15:02.023Z,11.60
2017-08-17T22:17:29.617Z,11.25
2017-08-17T22:19:57.199Z,11.88
2017-08-17T22:22:24.824Z,11.25
2017-08-17T22:24:52.413Z,11.68
2017-08-17T22:27:19.935Z,10.85
2017-08-17T22:29:47.566Z,9.98
2017-08-17T22:32:15.162Z,11.02
2017-08-17T22:34:42.764Z,9.77
2017-08-17T22:37:10.378Z,9.65
2017-08-17T22:39:37.932Z,9.85
2017-08-17T22:42:05.543Z,10.68
2017-08-17T22:44:33.142Z,12.07
2017-08-17T22:47:00.730Z,10.23
2017-08-17T22:49:28.260Z,9.98
2017-08-17T22:51:56.054Z,10.48
2017-08-17T22:54:23.627Z,9.20
2017-08-17T22:56:51.170Z,11.40
2017-08-17T22:59:18.754Z,8.93
2017-08-17T23:01:46.300Z,9.07
2017-08-17T23:04:13.887Z,8.75
2017-08-17T23:06:41.517Z,9.55
2017-08-17T23:09:09.103Z,9.50
2017-08-17T23:11:36.674Z,8.80
2017-08-17T23:14:04.428Z,8.30
2017-08-17T23:16:32.027Z,8.55
2017-08-17T23:18:59.604Z,8.20
2017-08-17T23:21:27.378Z,7.53
2017-08-17T23:23:54.902Z,7.28
2017-08-17T23:26:22.451Z,7.18
2017-08-17T23:28:50.234Z,7.75
2017-08-17T23:31:17.809Z,8.50
2017-08-17T23:33:45.345Z,7.75
2017-08-17T23:36:12.937Z,7.28
2017-08-17T23:38:40.518Z,6.65
2017-08-17T23:41:08.082Z,8.02
2017-08-17T23:43:35.870Z,7.80
2017-08-17T23:46:03.445Z,7.30
2017-08-17T23:48:31.005Z,7.80
2017-08-17T23:50:58.607Z,7.37
2017-08-17T23:53:26.137Z,7.47
2017-08-17T23:55:53.675Z,7.93
2017-08-17T23:58:21.327Z,7.70
